createdAt,value
2017-08-13T00:00:08.362Z,17.23
2017-08-13T00:00:49.246Z,17.24
2017-08-13T00:01:30.136Z,17.26
2017-08-13T00:02:11.011Z,17.27
2017-08-13T00:02:51.896Z,17.24
2017-08-13T00:03:32.783Z,17.3
2017-08-13T00:04:13.668Z,17.33
2017-08-13T00:04:54.568Z,17.34
2017-08-13T00:05:35.458Z,17.42
2017-08-13T00:06:16.349Z,17.34
2017-08-13T00:06:57.244Z,17.33
2017-08-13T00:07:38.136Z,17.31
2017-08-13T00:08:19.043Z,17.39
2017-08-13T00:08:59.930Z,17.36
2017-08-13T00:09:40.825Z,17.22
2017-08-13T00:10:21.717Z,17.24
2017-08-13T00:11:02.611Z,17.38
2017-08-13T00:11:43.506Z,17.36
2017-08-13T00:12:24.397Z,17.24
2017-08-13T00:13:05.292Z,17.19
2017-08-13T00:13:46.185Z,17.22
2017-08-13T00:14:27.073Z,17.22
2017-08-13T00:15:07.962Z,17.26
2017-08-13T00:15:48.851Z,17.29
2017-08-13T00:16:29.744Z,17.39
2017-08-13T00:17:10.653Z,17.34
2017-08-13T00:17:51.528Z,17.36
2017-08-13T00:18:32.417Z,17.31
2017-08-13T00:19:13.308Z,17.34
2017-08-13T00:19:54.207Z,17.39
2017-08-13T00:20:35.106Z,17.38
2017-08-13T00:21:15.994Z,17.41
2017-08-13T00:21:56.887Z,17.31
2017-08-13T00:22:37.774Z,17.34
2017-08-13T00:23:18.681Z,17.31
2017-08-13T00:23:59.578Z,17.39
2017-08-13T00:24:40.471Z,17.33
2017-08-13T00:25:21.351Z,17.27
2017-08-13T00:26:02.229Z,17.27
2017-08-13T00:26:43.125Z,17.24
2017-08-13T00:27:24.029Z,17.22
2017-08-13T00:28:04.938Z,17.29
2017-08-13T00:28:45.832Z,17.26
2017-08-13T00:29:26.723Z,17.27
2017-08-13T00:30:07.623Z,17.24
2017-08-13T00:30:48.520Z,17.26
2017-08-13T00:31:29.391Z,17.27
2017-08-13T00:32:10.292Z,17.29
2017-08-13T00:32:51.183Z,17.31
2017-08-13T00:33:32.103Z,17.39
2017-08-13T00:34:12.995Z,17.36
2017-08-13T00:34:53.879Z,17.39
2017-08-13T00:35:34.751Z,17.33
2017-08-13T00:36:15.655Z,17.38
2017-08-13T00:36:56.546Z,17.3
2017-08-13T00:37:37.425Z,17.38
2017-08-13T00:38:18.316Z,17.38
2017-08-13T00:38:59.205Z,17.36
2017-08-13T00:39:40.087Z,17.41
2017-08-13T00:40:20.958Z,17.34
2017-08-13T00:41:01.861Z,17.29
2017-08-13T00:41:42.756Z,17.22
2017-08-13T00:42:23.672Z,17.23
2017-08-13T00:43:04.556Z,17.3
2017-08-13T00:43:45.442Z,17.34
2017-08-13T00:44:26.324Z,17.38
2017-08-13T00:45:07.232Z,17.41
2017-08-13T00:45:48.115Z,17.27
2017-08-13T00:46:29.023Z,17.36
2017-08-13T00:47:09.925Z,17.29
2017-08-13T00:47:50.807Z,17.34
2017-08-13T00:48:31.694Z,17.38
2017-08-13T00:49:12.583Z,17.36
2017-08-13T00:49:53.470Z,17.33
2017-08-13T00:50:34.357Z,17.27
2017-08-13T00:51:15.279Z,17.31
2017-08-13T00:51:56.139Z,17.23
2017-08-13T00:52:37.038Z,17.22
2017-08-13T00:53:17.934Z,17.26
2017-08-13T00:53:58.825Z,17.22
2017-08-13T00:54:39.701Z,17.16
2017-08-13T00:55:20.585Z,17.16
2017-08-13T00:56:01.494Z,17.31
2017-08-13T00:56:42.378Z,17.34
2017-08-13T00:57:23.285Z,17.36
2017-08-13T00:58:04.171Z,17.42
2017-08-13T00:58:45.054Z,17.36
2017-08-13T00:59:25.958Z,17.51
2017-08-13T01:00:06.846Z,17.49
2017-08-13T01:00:47.736Z,17.57
2017-08-13T01:01:28.635Z,17.6
2017-08-13T01:02:09.543Z,17.59
2017-08-13T01:02:50.418Z,17.57
2017-08-13T01:03:31.310Z,17.74
2017-08-13T01:04:12.201Z,17.56
2017-08-13T01:04:53.090Z,17.57
2017-08-13T01:05:33.985Z,17.78
2017-08-13T01:06:14.872Z,17.6
2017-08-13T01:06:55.772Z,17.6
2017-08-13T01:07:36.661Z,17.72
2017-08-13T01:08:17.590Z,17.65
2017-08-13T01:08:58.444Z,17.57
2017-08-13T01:09:39.350Z,17.67
2017-08-13T01:10:20.241Z,17.68
2017-08-13T01:11:01.135Z,17.68
2017-08-13T01:11:42.030Z,17.7
2017-08-13T01:12:22.915Z,17.72
2017-08-13T01:13:03.799Z,17.68
2017-08-13T01:13:44.689Z,17.68
2017-08-13T01:14:25.581Z,17.76
2017-08-13T01:15:06.524Z,17.82
2017-08-13T01:15:47.417Z,17.78
2017-08-13T01:16:28.307Z,17.76
2017-08-13T01:17:09.203Z,17.76
2017-08-13T01:17:50.090Z,17.78
2017-08-13T01:18:30.978Z,17.72
2017-08-13T01:19:11.882Z,17.79
2017-08-13T01:19:52.765Z,17.78
2017-08-13T01:20:33.654Z,17.7
2017-08-13T01:21:14.587Z,17.63
2017-08-13T01:21:55.480Z,17.57
2017-08-13T01:22:36.376Z,17.67
2017-08-13T01:23:17.264Z,17.68
2017-08-13T01:23:58.145Z,17.71
2017-08-13T01:24:39.058Z,17.67
2017-08-13T01:25:19.984Z,17.59
2017-08-13T01:26:00.868Z,17.63
2017-08-13T01:26:41.753Z,17.63
2017-08-13T01:27:22.654Z,17.64
2017-08-13T01:28:03.544Z,17.54
2017-08-13T01:28:44.430Z,17.64
2017-08-13T01:29:25.337Z,17.59
2017-08-13T01:30:06.227Z,17.59
2017-08-13T01:30:47.124Z,17.63
2017-08-13T01:31:28.013Z,17.63
2017-08-13T01:32:08.899Z,17.64
2017-08-13T01:32:49.786Z,17.64
2017-08-13T01:33:30.705Z,17.59
2017-08-13T01:34:11.594Z,17.6
2017-08-13T01:34:52.481Z,17.59
2017-08-13T01:35:33.372Z,17.67
2017-08-13T01:36:14.273Z,17.65
2017-08-13T01:36:55.165Z,17.72
2017-08-13T01:37:36.062Z,17.54
2017-08-13T01:38:16.947Z,17.6
2017-08-13T01:38:57.841Z,17.52
2017-08-13T01:39:38.733Z,17.59
2017-08-13T01:40:19.622Z,17.52
2017-08-13T01:41:00.513Z,17.67
2017-08-13T01:41:41.396Z,17.6
2017-08-13T01:42:22.285Z,17.65
2017-08-13T01:43:03.191Z,17.63
2017-08-13T01:43:44.084Z,17.64
2017-08-13T01:44:24.966Z,17.6
2017-08-13T01:45:05.870Z,17.52
2017-08-13T01:45:46.759Z,17.57
2017-08-13T01:46:27.642Z,17.45
2017-08-13T01:47:08.540Z,17.45
2017-08-13T01:47:49.417Z,17.38
2017-08-13T01:48:30.306Z,17.24
2017-08-13T01:49:11.200Z,17.27
2017-08-13T01:49:52.086Z,17.22
2017-08-13T01:50:32.978Z,17.34
2017-08-13T01:51:13.872Z,17.31
2017-08-13T01:51:54.762Z,17.27
2017-08-13T01:52:35.675Z,17.38
2017-08-13T01:53:16.560Z,17.26
2017-08-13T01:53:57.445Z,17.26
2017-08-13T01:54:38.339Z,17.09
2017-08-13T01:55:19.228Z,17.05
2017-08-13T01:56:00.153Z,17.09
2017-08-13T01:56:41.046Z,17.2
2017-08-13T01:57:21.942Z,17.2
2017-08-13T01:58:02.820Z,17.2
2017-08-13T01:58:43.710Z,17.29
2017-08-13T01:59:24.610Z,17.11
2017-08-13T02:00:05.521Z,17.16
2017-08-13T02:00:46.400Z,17.16
2017-08-13T02:01:27.285Z,17.15
2017-08-13T02:02:08.193Z,17.15
2017-08-13T02:02:49.090Z,17.11
2017-08-13T02:03:29.981Z,17.2
2017-08-13T02:04:10.874Z,17.15
2017-08-13T02:04:51.766Z,17.04
2017-08-13T02:05:32.657Z,17.02
2017-08-13T02:06:13.545Z,17.05
2017-08-13T02:06:54.427Z,17.11
2017-08-13T02:07:35.315Z,17.12
2017-08-13T02:08:16.210Z,17.09
2017-08-13T02:08:57.103Z,17.19
2017-08-13T02:09:37.991Z,17.11
2017-08-13T02:10:18.901Z,17.11
2017-08-13T02:10:59.789Z,17.06
2017-08-13T02:11:40.672Z,17.14
2017-08-13T02:12:21.563Z,17.06
2017-08-13T02:13:02.451Z,17.05
2017-08-13T02:13:43.343Z,17.08
2017-08-13T02:14:24.226Z,17.04
2017-08-13T02:15:05.115Z,17.05
2017-08-13T02:15:46.003Z,17.05
2017-08-13T02:16:26.895Z,17.08
2017-08-13T02:17:07.784Z,17.02
2017-08-13T02:17:48.687Z,17.09
2017-08-13T02:18:29.573Z,17.04
2017-08-13T02:19:10.454Z,17.05
2017-08-13T02:19:51.344Z,17.09
2017-08-13T02:20:32.227Z,17.06
2017-08-13T02:21:13.106Z,17.05
2017-08-13T02:21:53.992Z,17.06
2017-08-13T02:22:34.894Z,17.12
2017-08-13T02:23:15.767Z,17.02
2017-08-13T02:23:56.668Z,17.12
2017-08-13T02:24:37.577Z,16.99
2017-08-13T02:25:18.453Z,16.99
2017-08-13T02:25:59.344Z,17.08
2017-08-13T02:26:40.233Z,17.04
2017-08-13T02:27:21.116Z,16.91
2017-08-13T02:28:02.000Z,16.93
2017-08-13T02:28:42.910Z,16.87
2017-08-13T02:29:23.792Z,16.9
2017-08-13T02:30:04.682Z,16.84
2017-08-13T02:30:45.571Z,16.86
2017-08-13T02:31:26.467Z,16.87
2017-08-13T02:32:07.349Z,16.86
2017-08-13T02:32:48.321Z,16.9
2017-08-13T02:33:29.216Z,16.76
2017-08-13T02:34:10.100Z,16.81
2017-08-13T02:34:50.990Z,16.86
2017-08-13T02:35:31.892Z,16.89
2017-08-13T02:36:12.776Z,16.89
2017-08-13T02:36:53.661Z,16.87
2017-08-13T02:37:34.544Z,16.83
2017-08-13T02:38:15.453Z,16.87
2017-08-13T02:38:56.337Z,16.9
2017-08-13T02:39:37.246Z,16.84
2017-08-13T02:40:18.153Z,16.93
2017-08-13T02:40:59.043Z,16.94
2017-08-13T02:41:39.942Z,16.97
2017-08-13T02:42:20.832Z,16.94
2017-08-13T02:43:01.723Z,16.94
2017-08-13T02:43:42.624Z,16.99
2017-08-13T02:44:23.530Z,16.96
2017-08-13T02:45:04.443Z,17.05
2017-08-13T02:45:45.326Z,16.93
2017-08-13T02:46:26.205Z,16.99
2017-08-13T02:47:07.102Z,16.94
2017-08-13T02:47:48.003Z,17.02
2017-08-13T02:48:28.904Z,16.91
2017-08-13T02:49:09.793Z,16.87
2017-08-13T02:50:37.917Z,16.99
2017-08-13T02:51:18.834Z,16.93
2017-08-13T02:51:59.720Z,17.01
2017-08-13T02:52:40.619Z,16.94
2017-08-13T02:53:21.501Z,17.01
2017-08-13T02:54:02.387Z,16.9
2017-08-13T02:54:43.273Z,16.9
2017-08-13T02:55:24.159Z,16.9
2017-08-13T02:56:05.051Z,16.89
2017-08-13T02:56:45.955Z,16.94
2017-08-13T02:57:26.844Z,17.01
2017-08-13T02:58:07.722Z,16.93
2017-08-13T02:58:48.608Z,17.06
2017-08-13T02:59:29.506Z,17.11
2017-08-13T03:00:10.387Z,17.05
2017-08-13T03:00:51.275Z,17.05
2017-08-13T03:01:32.166Z,17.04
2017-08-13T03:02:13.057Z,17.05
2017-08-13T03:02:53.937Z,17.05
2017-08-13T03:03:34.819Z,17.14
2017-08-13T03:04:15.716Z,17.22
2017-08-13T03:04:56.600Z,17.2
2017-08-13T03:05:37.496Z,17.22
2017-08-13T03:06:18.373Z,17.24
2017-08-13T03:06:59.257Z,17.29
2017-08-13T03:07:40.146Z,17.27
2017-08-13T03:08:21.050Z,17.41
2017-08-13T03:09:01.938Z,17.38
2017-08-13T03:09:42.840Z,17.36
2017-08-13T03:10:23.729Z,17.39
2017-08-13T03:11:04.615Z,17.49
2017-08-13T03:11:45.492Z,17.56
2017-08-13T03:12:26.377Z,17.48
2017-08-13T03:13:07.270Z,17.45
2017-08-13T03:13:48.160Z,17.48
2017-08-13T03:14:29.049Z,17.51
2017-08-13T03:15:09.935Z,17.59
2017-08-13T03:15:50.821Z,17.41
2017-08-13T03:16:31.706Z,17.34
2017-08-13T03:17:12.600Z,17.38
2017-08-13T03:17:53.491Z,17.33
2017-08-13T03:18:34.377Z,17.3
2017-08-13T03:19:15.261Z,17.23
2017-08-13T03:19:56.155Z,17.27
2017-08-13T03:20:37.046Z,17.27
2017-08-13T03:21:17.937Z,17.24
2017-08-13T03:21:58.823Z,17.26
2017-08-13T03:22:39.707Z,17.27
2017-08-13T03:23:20.594Z,17.31
2017-08-13T03:24:01.480Z,17.36
2017-08-13T03:24:42.373Z,17.39
2017-08-13T03:25:23.261Z,17.36
2017-08-13T03:26:04.149Z,17.45
2017-08-13T03:26:45.048Z,17.31
2017-08-13T03:27:25.933Z,17.38
2017-08-13T03:28:06.828Z,17.42
2017-08-13T03:28:47.709Z,17.36
2017-08-13T03:29:28.602Z,17.36
2017-08-13T03:30:09.484Z,17.36
2017-08-13T03:30:50.378Z,17.33
2017-08-13T03:31:31.275Z,17.34
2017-08-13T03:32:12.166Z,17.38
2017-08-13T03:32:53.056Z,17.38
2017-08-13T03:33:33.962Z,17.34
2017-08-13T03:34:14.839Z,17.31
2017-08-13T03:34:55.734Z,17.36
2017-08-13T03:35:36.621Z,17.33
2017-08-13T03:36:17.506Z,17.36
2017-08-13T03:36:58.389Z,17.36
2017-08-13T03:37:39.293Z,17.31
2017-08-13T03:38:20.179Z,17.34
2017-08-13T03:39:01.084Z,17.34
2017-08-13T03:39:41.974Z,17.56
2017-08-13T03:40:22.869Z,17.48
2017-08-13T03:41:03.760Z,17.39
2017-08-13T03:41:44.661Z,17.49
2017-08-13T03:42:25.546Z,17.39
2017-08-13T03:43:06.437Z,17.51
2017-08-13T03:43:47.328Z,17.38
2017-08-13T03:44:28.208Z,17.45
2017-08-13T03:45:09.115Z,17.41
2017-08-13T03:45:49.997Z,17.36
2017-08-13T03:46:30.877Z,17.3
2017-08-13T03:47:11.758Z,17.3
2017-08-13T03:47:52.676Z,17.31
2017-08-13T03:48:33.560Z,17.34
2017-08-13T03:49:14.462Z,17.39
2017-08-13T03:49:55.349Z,17.36
2017-08-13T03:50:36.236Z,17.33
2017-08-13T03:51:17.114Z,17.39
2017-08-13T03:51:58.026Z,17.39
2017-08-13T03:52:38.905Z,17.42
2017-08-13T03:53:19.889Z,17.42
2017-08-13T03:54:37.788Z,17.46
2017-08-13T03:55:18.656Z,17.54
2017-08-13T03:55:59.559Z,17.31
2017-08-13T03:56:40.461Z,17.36
2017-08-13T03:57:21.342Z,17.39
2017-08-13T03:58:02.238Z,17.34
2017-08-13T03:58:43.146Z,17.44
2017-08-13T03:59:23.999Z,17.36
2017-08-13T04:00:04.884Z,17.34
2017-08-13T04:00:45.769Z,17.24
2017-08-13T04:01:26.678Z,17.34
2017-08-13T04:02:07.557Z,17.36
2017-08-13T04:02:48.447Z,17.39
2017-08-13T04:03:29.321Z,17.36
2017-08-13T04:04:10.194Z,17.48
2017-08-13T04:04:51.085Z,17.57
2017-08-13T04:05:31.948Z,17.59
2017-08-13T04:06:12.838Z,17.51
2017-08-13T04:06:53.726Z,17.46
2017-08-13T04:07:34.606Z,17.54
2017-08-13T04:08:15.483Z,17.45
2017-08-13T04:08:56.372Z,17.41
2017-08-13T04:09:37.258Z,17.34
2017-08-13T04:10:18.138Z,17.42
2017-08-13T04:10:59.017Z,17.46
2017-08-13T04:11:39.907Z,17.38
2017-08-13T04:12:20.793Z,17.36
2017-08-13T04:13:01.658Z,17.36
2017-08-13T04:13:42.550Z,17.38
2017-08-13T04:14:23.443Z,17.42
2017-08-13T04:15:04.349Z,17.38
2017-08-13T04:15:45.227Z,17.45
2017-08-13T04:16:26.121Z,17.42
2017-08-13T04:17:07.012Z,17.33
2017-08-13T04:17:47.903Z,17.31
2017-08-13T04:18:28.790Z,17.31
2017-08-13T04:19:09.686Z,17.36
2017-08-13T04:19:50.558Z,17.27
2017-08-13T04:20:31.442Z,17.42
2017-08-13T04:21:12.348Z,17.38
2017-08-13T04:21:53.240Z,17.36
2017-08-13T04:22:34.121Z,17.41
2017-08-13T04:23:15.014Z,17.56
2017-08-13T04:23:55.898Z,17.48
2017-08-13T04:24:36.775Z,17.63
2017-08-13T04:25:17.715Z,17.6
2017-08-13T04:25:58.591Z,17.63
2017-08-13T04:26:39.555Z,17.67
2017-08-13T04:27:20.445Z,17.51
2017-08-13T04:28:01.350Z,17.67
2017-08-13T04:28:42.232Z,17.65
2017-08-13T04:29:23.116Z,17.57
2017-08-13T04:30:04.008Z,17.65
2017-08-13T04:30:44.916Z,17.72
2017-08-13T04:31:25.774Z,17.63
2017-08-13T04:32:06.661Z,17.74
2017-08-13T04:32:47.564Z,17.65
2017-08-13T04:33:28.439Z,17.7
2017-08-13T04:34:09.334Z,17.6
2017-08-13T04:34:50.224Z,17.59
2017-08-13T04:35:31.113Z,17.56
2017-08-13T04:36:12.007Z,17.52
2017-08-13T04:36:52.893Z,17.46
2017-08-13T04:37:33.788Z,17.59
2017-08-13T04:38:14.670Z,17.51
2017-08-13T04:38:55.561Z,17.54
2017-08-13T04:39:36.454Z,17.65
2017-08-13T04:40:17.339Z,17.71
2017-08-13T04:40:58.226Z,17.63
2017-08-13T04:41:39.120Z,17.65
2017-08-13T04:42:20.010Z,17.64
2017-08-13T04:43:00.903Z,17.67
2017-08-13T04:43:41.797Z,17.67
2017-08-13T04:44:22.679Z,17.63
2017-08-13T04:45:03.623Z,17.79
2017-08-13T04:45:44.508Z,17.76
2017-08-13T04:46:25.404Z,17.68
2017-08-13T04:47:06.306Z,17.68
2017-08-13T04:47:47.175Z,17.67
2017-08-13T04:48:28.055Z,17.67
2017-08-13T04:49:08.946Z,17.68
2017-08-13T04:49:49.846Z,17.68
2017-08-13T04:50:30.728Z,17.67
2017-08-13T04:51:11.621Z,17.8
2017-08-13T04:51:52.507Z,17.78
2017-08-13T04:52:33.380Z,17.79
2017-08-13T04:53:14.259Z,17.74
2017-08-13T04:53:55.156Z,17.8
2017-08-13T04:54:36.065Z,17.64
2017-08-13T04:55:16.946Z,17.64
2017-08-13T04:55:57.831Z,17.67
2017-08-13T04:56:38.716Z,17.68
2017-08-13T04:57:19.608Z,17.67
2017-08-13T04:58:00.476Z,17.78
2017-08-13T04:58:41.366Z,17.72
2017-08-13T04:59:22.255Z,17.8
2017-08-13T05:00:03.133Z,17.74
2017-08-13T05:00:44.026Z,17.65
2017-08-13T05:01:24.913Z,17.74
2017-08-13T05:02:05.808Z,17.79
2017-08-13T05:02:46.778Z,17.74
2017-08-13T05:03:27.653Z,17.7
2017-08-13T05:04:08.536Z,17.79
2017-08-13T05:04:49.423Z,17.79
2017-08-13T05:05:30.305Z,17.71
2017-08-13T05:06:11.196Z,17.63
2017-08-13T05:06:52.087Z,17.64
2017-08-13T05:07:32.980Z,17.72
2017-08-13T05:08:13.861Z,17.8
2017-08-13T05:08:54.766Z,17.85
2017-08-13T05:09:35.656Z,17.72
2017-08-13T05:10:16.535Z,17.64
2017-08-13T05:10:57.437Z,17.72
2017-08-13T05:11:38.322Z,17.74
2017-08-13T05:12:19.213Z,17.85
2017-08-13T05:13:00.107Z,17.92
2017-08-13T05:13:41.011Z,18.04
2017-08-13T05:14:21.894Z,18.03
2017-08-13T05:15:02.788Z,18.05
2017-08-13T05:15:43.692Z,18
2017-08-13T05:16:24.560Z,18.05
2017-08-13T05:17:05.447Z,17.94
2017-08-13T05:17:46.353Z,17.72
2017-08-13T05:18:27.245Z,17.8
2017-08-13T05:19:08.142Z,17.72
2017-08-13T05:19:49.049Z,17.83
2017-08-13T05:20:29.957Z,18
2017-08-13T05:21:10.857Z,17.95
2017-08-13T05:21:51.735Z,17.92
2017-08-13T05:22:32.631Z,17.8
2017-08-13T05:23:13.521Z,17.97
2017-08-13T05:23:54.405Z,17.72
2017-08-13T05:24:35.294Z,17.83
2017-08-13T05:25:16.189Z,17.79
2017-08-13T05:25:57.081Z,17.85
2017-08-13T05:26:37.970Z,17.89
2017-08-13T05:27:18.882Z,17.94
2017-08-13T05:28:37.756Z,17.98
2017-08-13T05:29:18.675Z,18.04
2017-08-13T05:29:59.564Z,17.87
2017-08-13T05:30:40.451Z,18.03
2017-08-13T05:31:21.342Z,18.15
2017-08-13T05:32:02.236Z,18.04
2017-08-13T05:32:43.125Z,18.13
2017-08-13T05:33:24.029Z,18.25
2017-08-13T05:34:04.904Z,18.1
2017-08-13T05:34:45.787Z,17.82
2017-08-13T05:35:26.683Z,17.87
2017-08-13T05:36:07.577Z,17.89
2017-08-13T05:36:48.453Z,17.82
2017-08-13T05:37:29.343Z,17.94
2017-08-13T05:38:10.227Z,17.94
2017-08-13T05:38:51.140Z,18.07
2017-08-13T05:39:32.031Z,18.22
2017-08-13T05:40:12.924Z,18.35
2017-08-13T05:40:53.807Z,18.41
2017-08-13T05:41:34.702Z,18.45
2017-08-13T05:42:15.590Z,18.33
2017-08-13T05:42:56.484Z,18.33
2017-08-13T05:43:37.404Z,18.31
2017-08-13T05:44:18.289Z,18.23
2017-08-13T05:44:59.186Z,18.23
2017-08-13T05:45:40.067Z,18.34
2017-08-13T05:46:20.960Z,18.31
2017-08-13T05:47:01.863Z,18.34
2017-08-13T05:47:42.754Z,18.37
2017-08-13T05:48:23.651Z,18.33
2017-08-13T05:49:04.549Z,18.45
2017-08-13T05:49:45.523Z,18.35
2017-08-13T05:50:26.415Z,18.19
2017-08-13T05:51:07.316Z,18.34
2017-08-13T05:51:48.230Z,18.31
2017-08-13T05:52:29.109Z,18.25
2017-08-13T05:53:09.995Z,18.29
2017-08-13T05:53:50.884Z,18.4
2017-08-13T05:54:31.779Z,18.53
2017-08-13T05:55:12.680Z,18.23
2017-08-13T05:55:53.626Z,18.33
2017-08-13T05:56:34.522Z,18.26
2017-08-13T05:57:15.407Z,18.18
2017-08-13T05:57:56.291Z,18.05
2017-08-13T05:58:37.202Z,18.25
2017-08-13T05:59:18.093Z,18.43
2017-08-13T05:59:58.988Z,18.5
2017-08-13T06:00:39.884Z,18.65
2017-08-13T06:01:20.783Z,18.55
2017-08-13T06:02:01.674Z,18.47
2017-08-13T06:02:42.565Z,18.31
2017-08-13T06:04:15.937Z,18.25
2017-08-13T06:04:56.832Z,18.1
2017-08-13T06:05:37.717Z,18.18
2017-08-13T06:06:18.618Z,18.31
2017-08-13T06:06:59.511Z,18.25
2017-08-13T06:07:40.395Z,18.34
2017-08-13T06:08:21.291Z,18.45
2017-08-13T06:09:02.186Z,18.47
2017-08-13T06:09:43.079Z,18.41
2017-08-13T06:10:23.976Z,18.28
2017-08-13T06:11:04.851Z,18.31
2017-08-13T06:11:45.740Z,18.34
2017-08-13T06:12:26.638Z,18.43
2017-08-13T06:13:07.528Z,18.5
2017-08-13T06:13:48.433Z,18.66
2017-08-13T06:14:29.319Z,18.59
2017-08-13T06:15:10.203Z,18.62
2017-08-13T06:15:51.084Z,18.75
2017-08-13T06:16:31.967Z,18.65
2017-08-13T06:17:12.861Z,18.77
2017-08-13T06:17:53.746Z,18.56
2017-08-13T06:18:34.619Z,18.52
2017-08-13T06:19:15.509Z,18.83
2017-08-13T06:19:56.405Z,18.98
2017-08-13T06:20:37.288Z,19.07
2017-08-13T06:21:18.173Z,19.14
2017-08-13T06:21:59.063Z,19.22
2017-08-13T06:22:39.974Z,19.26
2017-08-13T06:23:57.875Z,19.31
2017-08-13T06:24:38.789Z,19.26
2017-08-13T06:25:19.680Z,19.39
2017-08-13T06:26:00.556Z,19.45
2017-08-13T06:26:41.451Z,19.54
2017-08-13T06:27:22.341Z,19.63
2017-08-13T06:28:03.240Z,19.79
2017-08-13T06:28:44.129Z,19.71
2017-08-13T06:29:25.019Z,19.7
2017-08-13T06:30:05.929Z,19.88
2017-08-13T06:30:46.818Z,19.99
2017-08-13T06:31:27.716Z,20
2017-08-13T06:32:08.602Z,19.96
2017-08-13T06:32:49.489Z,20.06
2017-08-13T06:33:30.396Z,19.56
2017-08-13T06:34:11.332Z,19.47
2017-08-13T06:34:52.154Z,19.15
2017-08-13T06:35:33.046Z,19.07
2017-08-13T06:36:13.930Z,19.19
2017-08-13T06:36:54.811Z,19.24
2017-08-13T06:37:35.698Z,19.45
2017-08-13T06:38:16.584Z,19.4
2017-08-13T06:38:57.472Z,19.22
2017-08-13T06:39:38.364Z,19.21
2017-08-13T06:40:19.349Z,19.3
2017-08-13T06:41:00.224Z,19.3
2017-08-13T06:41:41.124Z,19.27
2017-08-13T06:43:34.845Z,19.86
2017-08-13T06:44:15.733Z,19.88
2017-08-13T06:44:56.613Z,19.95
2017-08-13T06:45:37.498Z,20.07
2017-08-13T06:46:18.405Z,20.07
2017-08-13T06:46:59.302Z,19.95
2017-08-13T06:47:40.183Z,19.49
2017-08-13T06:48:21.077Z,19.29
2017-08-13T06:49:01.964Z,19.37
2017-08-13T06:49:42.849Z,19.67
2017-08-13T06:50:23.742Z,19.95
2017-08-13T06:51:04.633Z,20.09
2017-08-13T06:51:45.516Z,20.21
2017-08-13T06:52:26.406Z,20.43
2017-08-13T06:53:07.354Z,20.43
2017-08-13T06:53:48.246Z,20.26
2017-08-13T06:54:29.141Z,20.19
2017-08-13T06:55:10.027Z,20.22
2017-08-13T06:55:50.917Z,20.34
2017-08-13T06:56:31.842Z,20.34
2017-08-13T06:57:12.781Z,20.44
2017-08-13T06:57:53.683Z,20.18
2017-08-13T06:58:34.565Z,19.74
2017-08-13T06:59:15.460Z,19.64
2017-08-13T06:59:56.346Z,19.84
2017-08-13T07:00:37.247Z,19.69
2017-08-13T07:01:18.136Z,19.3
2017-08-13T07:01:59.019Z,19.18
2017-08-13T07:02:39.928Z,19.09
2017-08-13T07:03:20.814Z,18.95
2017-08-13T07:04:01.712Z,18.98
2017-08-13T07:04:42.606Z,19.22
2017-08-13T07:05:23.485Z,19.51
2017-08-13T07:06:04.366Z,19.7
2017-08-13T07:06:45.256Z,19.89
2017-08-13T07:07:26.159Z,19.89
2017-08-13T07:08:07.045Z,19.91
2017-08-13T07:08:47.943Z,20
2017-08-13T07:09:28.835Z,20.09
2017-08-13T07:10:09.719Z,19.86
2017-08-13T07:10:50.616Z,19.71
2017-08-13T07:11:31.512Z,19.84
2017-08-13T07:12:12.397Z,19.77
2017-08-13T07:12:53.306Z,19.74
2017-08-13T07:13:34.188Z,19.77
2017-08-13T07:14:15.073Z,19.69
2017-08-13T07:14:55.988Z,19.69
2017-08-13T07:15:36.862Z,19.85
2017-08-13T07:16:17.748Z,20.03
2017-08-13T07:16:58.652Z,20.14
2017-08-13T07:17:39.539Z,20.22
2017-08-13T07:18:20.438Z,20.41
2017-08-13T07:19:01.327Z,20.52
2017-08-13T07:19:42.216Z,20.74
2017-08-13T07:20:23.118Z,20.99
2017-08-13T07:21:04.008Z,21.2
2017-08-13T07:21:44.897Z,21.2
2017-08-13T07:22:25.781Z,21.3
2017-08-13T07:23:06.680Z,21.29
2017-08-13T07:23:47.573Z,21.39
2017-08-13T07:24:28.471Z,21.25
2017-08-13T07:25:09.357Z,21.39
2017-08-13T07:25:50.249Z,21.2
2017-08-13T07:26:31.154Z,21.03
2017-08-13T07:27:12.046Z,21.21
2017-08-13T07:27:52.937Z,21.43
2017-08-13T07:28:33.842Z,21.3
2017-08-13T07:29:14.739Z,21.42
2017-08-13T07:29:55.630Z,20.97
2017-08-13T07:30:36.526Z,21
2017-08-13T07:31:17.471Z,20.7
2017-08-13T07:31:58.370Z,21.11
2017-08-13T07:32:39.293Z,21.07
2017-08-13T07:33:20.155Z,21.24
2017-08-13T07:34:01.047Z,21.4
2017-08-13T07:34:41.936Z,21.42
2017-08-13T07:35:22.846Z,21.45
2017-08-13T07:36:03.752Z,21.3
2017-08-13T07:36:44.640Z,21.51
2017-08-13T07:37:25.519Z,21.75
2017-08-13T07:38:06.414Z,21.82
2017-08-13T07:38:47.299Z,21.62
2017-08-13T07:39:28.201Z,21.83
2017-08-13T07:40:09.103Z,21.92
2017-08-13T07:40:50.000Z,22.07
2017-08-13T07:41:30.917Z,21.99
2017-08-13T07:42:11.804Z,21.69
2017-08-13T07:42:52.693Z,21.5
2017-08-13T07:43:33.585Z,21.83
2017-08-13T07:44:14.477Z,21.83
2017-08-13T07:44:55.395Z,21.25
2017-08-13T07:45:36.284Z,21.51
2017-08-13T07:46:17.219Z,21.7
2017-08-13T07:46:58.109Z,21.85
2017-08-13T07:47:39.003Z,21.67
2017-08-13T07:48:19.889Z,21.67
2017-08-13T07:49:00.791Z,21.72
2017-08-13T07:49:41.678Z,21.8
2017-08-13T07:50:22.572Z,21.61
2017-08-13T07:51:03.468Z,21.72
2017-08-13T07:51:44.358Z,21.83
2017-08-13T07:52:25.248Z,21.93
2017-08-13T07:53:06.144Z,21.11
2017-08-13T07:53:47.038Z,20.88
2017-08-13T07:54:27.987Z,20.63
2017-08-13T07:55:08.834Z,20.8
2017-08-13T07:55:49.732Z,20.48
2017-08-13T07:56:30.615Z,20.84
2017-08-13T07:57:11.512Z,20.32
2017-08-13T07:57:52.400Z,20.51
2017-08-13T07:58:33.298Z,20.66
2017-08-13T07:59:14.203Z,21
2017-08-13T07:59:55.081Z,20.66
2017-08-13T08:00:35.987Z,20.75
2017-08-13T08:01:16.880Z,20.81
2017-08-13T08:01:57.778Z,21.03
2017-08-13T08:02:38.669Z,20.58
2017-08-13T08:03:19.561Z,20.63
2017-08-13T08:04:00.463Z,20.72
2017-08-13T08:04:41.353Z,21.18
2017-08-13T08:05:22.324Z,21.66
2017-08-13T08:06:03.163Z,22.08
2017-08-13T08:06:44.164Z,22.26
2017-08-13T08:07:25.063Z,22.53
2017-08-13T08:08:05.955Z,22.39
2017-08-13T08:08:46.917Z,22.38
2017-08-13T08:09:27.809Z,22.7
2017-08-13T08:10:08.714Z,22.78
2017-08-13T08:10:49.607Z,23.23
2017-08-13T08:11:30.510Z,23.43
2017-08-13T08:12:11.406Z,22.96
2017-08-13T08:12:52.302Z,22.44
2017-08-13T08:13:33.201Z,22.15
2017-08-13T08:14:14.095Z,21.64
2017-08-13T08:14:54.985Z,21.82
2017-08-13T08:15:35.888Z,22.13
2017-08-13T08:16:16.787Z,22.07
2017-08-13T08:16:57.701Z,22.26
2017-08-13T08:17:38.604Z,22.55
2017-08-13T08:18:19.497Z,22.38
2017-08-13T08:19:00.388Z,22.75
2017-08-13T08:19:41.287Z,22.94
2017-08-13T08:20:22.172Z,22.41
2017-08-13T08:21:03.081Z,23.17
2017-08-13T08:21:43.985Z,23.54
2017-08-13T08:22:24.881Z,23.78
2017-08-13T08:23:05.783Z,24.14
2017-08-13T08:23:46.677Z,24.06
2017-08-13T08:24:27.579Z,23.91
2017-08-13T08:25:08.484Z,22.99
2017-08-13T08:25:49.375Z,22.8
2017-08-13T08:26:30.281Z,23.09
2017-08-13T08:27:11.182Z,22.99
2017-08-13T08:27:52.095Z,23.24
2017-08-13T08:28:32.999Z,23.44
2017-08-13T08:29:13.904Z,22.7
2017-08-13T08:29:54.794Z,22.26
2017-08-13T08:30:35.726Z,22.14
2017-08-13T08:31:16.610Z,22.11
2017-08-13T08:31:57.611Z,22.11
2017-08-13T08:32:38.507Z,22.41
2017-08-13T08:33:19.410Z,22.26
2017-08-13T08:34:00.322Z,22.26
2017-08-13T08:34:41.223Z,23
2017-08-13T08:35:22.128Z,22.66
2017-08-13T08:36:03.018Z,21.95
2017-08-13T08:36:43.914Z,21.4
2017-08-13T08:37:24.814Z,21.15
2017-08-13T08:38:05.718Z,21.48
2017-08-13T08:38:46.596Z,21.42
2017-08-13T08:39:27.489Z,21.07
2017-08-13T08:40:08.373Z,21.09
2017-08-13T08:40:49.306Z,21.61
2017-08-13T08:41:30.217Z,22.2
2017-08-13T08:42:11.120Z,22.07
2017-08-13T08:42:52.010Z,22.83
2017-08-13T08:43:32.924Z,22.6
2017-08-13T08:44:13.829Z,23.15
2017-08-13T08:44:54.753Z,23.69
2017-08-13T08:45:35.625Z,22.84
2017-08-13T08:46:16.535Z,23.32
2017-08-13T08:46:57.420Z,23.51
2017-08-13T08:47:38.292Z,24.29
2017-08-13T08:48:19.210Z,23.77
2017-08-13T08:49:00.090Z,23.88
2017-08-13T08:49:41.000Z,24.28
2017-08-13T08:50:21.917Z,24.76
2017-08-13T08:51:02.817Z,25.29
2017-08-13T08:51:43.717Z,26.47
2017-08-13T08:52:24.648Z,26.26
2017-08-13T08:53:05.539Z,25.81